sensor_id;sensor_type;location;lat;lon;timestamp;pressure;altitude;pressure_sealevel;temperature;humidity
8707;BME280;75512;49.302;9.306;2024-01-10T00:00:39;100786.06;;;-3.84;38.38
8707;BME280;75512;49.302;9.306;2024-01-10T00:03:06;100796.09;;;-3.74;38.69
8707;BME280;75512;49.302;9.306;2024-01-10T00:05:34;100782.44;;;-3.71;38.50
8707;BME280;75512;49.302;9.306;2024-01-10T00:08:02;100768.78;;;-3.70;38.47
8707;BME280;75512;49.302;9.306;2024-01-10T00:10:30;100757.13;;;-3.85;38.36
8707;BME280;75512;49.302;9.306;2024-01-10T00:12:59;100770.75;;;-3.86;38.38
8707;BME280;75512;49.302;9.306;2024-01-10T00:15:27;100764.88;;;-3.89;38.76
8707;BME280;75512;49.302;9.306;2024-01-10T00:17:55;100765.13;;;-4.03;38.96
8707;BME280;75512;49.302;9.306;2024-01-10T00:20:23;100760.53;;;-3.86;38.81
8707;BME280;75512;49.302;9.306;2024-01-10T00:22:51;100760.50;;;-3.84;39.10
8707;BME280;75512;49.302;9.306;2024-01-10T00:25:18;100745.56;;;-4.04;39.02
8707;BME280;75512;49.302;9.306;2024-01-10T00:27:46;100747.25;;;-4.03;39.26
8707;BME280;75512;49.302;9.306;2024-01-10T00:30:16;100744.63;;;-3.99;39.00
8707;BME280;75512;49.302;9.306;2024-01-10T00:32:44;100755.88;;;-4.09;39.21
8707;BME280;75512;49.302;9.306;2024-01-10T00:35:11;100745.66;;;-4.09;39.23
8707;BME280;75512;49.302;9.306;2024-01-10T00:37:39;100746.53;;;-4.11;39.35
8707;BME280;75512;49.302;9.306;2024-01-10T00:40:08;100749.88;;;-4.08;39.35
8707;BME280;75512;49.302;9.306;2024-01-10T00:42:35;100757.50;;;-4.05;39.33
8707;BME280;75512;49.302;9.306;2024-01-10T00:45:03;100747.31;;;-4.06;39.63
8707;BME280;75512;49.302;9.306;2024-01-10T00:47:32;100757.41;;;-3.99;39.39
8707;BME280;75512;49.302;9.306;2024-01-10T00:50:00;100760.69;;;-3.93;38.98
8707;BME280;75512;49.302;9.306;2024-01-10T00:52:28;100747.16;;;-3.99;38.93
8707;BME280;75512;49.302;9.306;2024-01-10T00:54:56;100751.13;;;-3.84;38.61
8707;BME280;75512;49.302;9.306;2024-01-10T00:57:23;100754.66;;;-3.91;38.04
8707;BME280;75512;49.302;9.306;2024-01-10T00:59:51;100762.38;;;-3.94;38.43
8707;BME280;75512;49.302;9.306;2024-01-10T01:02:19;100730.63;;;-4.24;37.94
8707;BME280;75512;49.302;9.306;2024-01-10T01:04:48;100751.53;;;-4.04;38.21
8707;BME280;75512;49.302;9.306;2024-01-10T01:07:16;100740.41;;;-4.01;38.65
8707;BME280;75512;49.302;9.306;2024-01-10T01:09:44;100748.66;;;-3.88;38.25
8707;BME280;75512;49.302;9.306;2024-01-10T01:12:12;100751.28;;;-3.91;38.03
8707;BME280;75512;49.302;9.306;2024-01-10T01:14:40;100753.84;;;-3.93;38.25
8707;BME280;75512;49.302;9.306;2024-01-10T01:17:07;100753.56;;;-3.78;37.90
8707;BME280;75512;49.302;9.306;2024-01-10T01:19:36;100761.13;;;-3.72;37.55
8707;BME280;75512;49.302;9.306;2024-01-10T01:22:05;100757.63;;;-3.68;37.12
8707;BME280;75512;49.302;9.306;2024-01-10T01:24:33;100760.25;;;-3.71;37.88
8707;BME280;75512;49.302;9.306;2024-01-10T01:27:02;100768.59;;;-3.63;37.46
8707;BME280;75512;49.302;9.306;2024-01-10T01:29:31;100758.72;;;-3.79;38.16
8707;BME280;75512;49.302;9.306;2024-01-10T01:31:58;100756.75;;;-3.67;37.75
8707;BME280;75512;49.302;9.306;2024-01-10T01:34:26;100756.84;;;-3.71;37.59
8707;BME280;75512;49.302;9.306;2024-01-10T01:36:53;100757.56;;;-3.65;37.92
8707;BME280;75512;49.302;9.306;2024-01-10T01:39:22;100757.50;;;-3.61;37.88
8707;BME280;75512;49.302;9.306;2024-01-10T01:41:50;100755.69;;;-3.56;37.55
8707;BME280;75512;49.302;9.306;2024-01-10T01:44:18;100757.38;;;-3.55;37.53
8707;BME280;75512;49.302;9.306;2024-01-10T01:46:46;100768.66;;;-3.66;38.07
8707;BME280;75512;49.302;9.306;2024-01-10T01:49:15;100758.69;;;-3.78;37.84
8707;BME280;75512;49.302;9.306;2024-01-10T01:51:43;100767.84;;;-3.68;37.71
8707;BME280;75512;49.302;9.306;2024-01-10T01:54:11;100765.28;;;-3.68;37.95
8707;BME280;75512;49.302;9.306;2024-01-10T01:56:42;100764.31;;;-3.62;37.43
8707;BME280;75512;49.302;9.306;2024-01-10T01:59:10;100768.50;;;-3.58;37.15
8707;BME280;75512;49.302;9.306;2024-01-10T02:01:39;100756.59;;;-3.59;37.44
8707;BME280;75512;49.302;9.306;2024-01-10T02:04:07;100749.00;;;-3.62;37.58
8707;BME280;75512;49.302;9.306;2024-01-10T02:06:35;100759.91;;;-3.54;37.55
8707;BME280;75512;49.302;9.306;2024-01-10T02:09:03;100749.63;;;-3.51;37.54
8707;BME280;75512;49.302;9.306;2024-01-10T02:11:31;100763.13;;;-3.44;37.83
8707;BME280;75512;49.302;9.306;2024-01-10T02:14:00;100753.09;;;-3.55;38.19
8707;BME280;75512;49.302;9.306;2024-01-10T02:16:29;100750.56;;;-3.55;38.32
8707;BME280;75512;49.302;9.306;2024-01-10T02:18:57;100762.44;;;-3.52;38.71
8707;BME280;75512;49.302;9.306;2024-01-10T02:21:24;100760.72;;;-3.52;38.64
8707;BME280;75512;49.302;9.306;2024-01-10T02:23:52;100754.88;;;-3.58;38.84
8707;BME280;75512;49.302;9.306;2024-01-10T02:30:34;100753.34;;;-3.67;38.72
8707;BME280;75512;49.302;9.306;2024-01-10T02:33:02;100754.19;;;-3.67;38.28
8707;BME280;75512;49.302;9.306;2024-01-10T02:35:30;100759.59;;;-3.80;38.70
8707;BME280;75512;49.302;9.306;2024-01-10T02:38:00;100734.13;;;-3.85;38.38
8707;BME280;75512;49.302;9.306;2024-01-10T02:40:27;100756.06;;;-3.75;38.81
8707;BME280;75512;49.302;9.306;2024-01-10T02:42:55;100750.16;;;-3.77;38.20
8707;BME280;75512;49.302;9.306;2024-01-10T02:45:23;100741.25;;;-3.59;37.66
8707;BME280;75512;49.302;9.306;2024-01-10T02:47:52;100744.91;;;-3.71;37.76
8707;BME280;75512;49.302;9.306;2024-01-10T02:50:20;100731.47;;;-3.80;37.86
8707;BME280;75512;49.302;9.306;2024-01-10T02:52:48;100730.81;;;-3.91;37.80
8707;BME280;75512;49.302;9.306;2024-01-10T02:55:16;100722.53;;;-4.03;37.38
8707;BME280;75512;49.302;9.306;2024-01-10T02:57:44;100730.84;;;-3.93;37.52
8707;BME280;75512;49.302;9.306;2024-01-10T03:00:13;100733.47;;;-3.96;37.37
8707;BME280;75512;49.302;9.306;2024-01-10T03:02:40;100731.81;;;-3.97;38.16
8707;BME280;75512;49.302;9.306;2024-01-10T03:05:09;100729.59;;;-4.15;37.33
8707;BME280;75512;49.302;9.306;2024-01-10T03:07:37;100711.78;;;-4.20;37.94
8707;BME280;75512;49.302;9.306;2024-01-10T03:10:06;100724.31;;;-4.06;37.59
8707;BME280;75512;49.302;9.306;2024-01-10T03:12:35;100720.59;;;-3.90;37.63
8707;BME280;75512;49.302;9.306;2024-01-10T03:15:05;100721.41;;;-3.88;37.81
8707;BME280;75512;49.302;9.306;2024-01-10T03:17:33;100724.22;;;-4.02;37.52
8707;BME280;75512;49.302;9.306;2024-01-10T03:20:02;100719.34;;;-4.14;38.05
8707;BME280;75512;49.302;9.306;2024-01-10T03:22:32;100722.53;;;-4.03;37.57
8707;BME280;75512;49.302;9.306;2024-01-10T03:25:00;100713.56;;;-3.79;37.55
8707;BME280;75512;49.302;9.306;2024-01-10T03:27:28;100703.50;;;-3.88;37.88
8707;BME280;75512;49.302;9.306;2024-01-10T03:29:56;100712.72;;;-3.79;36.97
8707;BME280;75512;49.302;9.306;2024-01-10T03:32:23;100712.88;;;-3.88;37.10
8707;BME280;75512;49.302;9.306;2024-01-10T03:34:51;100726.63;;;-3.94;37.53
8707;BME280;75512;49.302;9.306;2024-01-10T03:37:19;100718.19;;;-3.97;37.46
8707;BME280;75512;49.302;9.306;2024-01-10T03:39:48;100711.19;;;-3.89;37.41
8707;BME280;75512;49.302;9.306;2024-01-10T03:42:16;100713.63;;;-3.83;37.42
8707;BME280;75512;49.302;9.306;2024-01-10T03:44:44;100707.81;;;-3.90;37.82
8707;BME280;75512;49.302;9.306;2024-01-10T03:47:11;100709.06;;;-3.69;37.49
8707;BME280;75512;49.302;9.306;2024-01-10T03:49:39;100722.56;;;-3.63;37.06
8707;BME280;75512;49.302;9.306;2024-01-10T03:52:07;100701.50;;;-3.72;37.39
8707;BME280;75512;49.302;9.306;2024-01-10T03:54:35;100714.81;;;-3.58;37.31
8707;BME280;75512;49.302;9.306;2024-01-10T03:57:04;100719.25;;;-3.66;37.05
8707;BME280;75512;49.302;9.306;2024-01-10T03:59:32;100704.53;;;-3.55;36.95
8707;BME280;75512;49.302;9.306;2024-01-10T04:02:00;100708.31;;;-3.73;37.28
8707;BME280;75512;49.302;9.306;2024-01-10T04:04:28;100701.72;;;-3.84;36.90
8707;BME280;75512;49.302;9.306;2024-01-10T04:06:56;100713.75;;;-3.89;37.05
8707;BME280;75512;49.302;9.306;2024-01-10T04:09:24;100689.16;;;-3.95;37.59
8707;BME280;75512;49.302;9.306;2024-01-10T04:11:52;100705.97;;;-3.83;37.28
8707;BME280;75512;49.302;9.306;2024-01-10T04:14:21;100703.41;;;-3.83;37.57
8707;BME280;75512;49.302;9.306;2024-01-10T04:16:49;100701.91;;;-3.93;37.55
8707;BME280;75512;49.302;9.306;2024-01-10T04:19:16;100691.34;;;-3.77;37.60
8707;BME280;75512;49.302;9.306;2024-01-10T04:21:45;100695.44;;;-3.70;37.25
8707;BME280;75512;49.302;9.306;2024-01-10T04:24:13;100698.09;;;-3.73;37.78
8707;BME280;75512;49.302;9.306;2024-01-10T04:26:41;100684.69;;;-3.84;37.28
8707;BME280;75512;49.302;9.306;2024-01-10T04:29:08;100697.03;;;-3.64;36.88
8707;BME280;75512;49.302;9.306;2024-01-10T04:31:38;100686.50;;;-3.89;37.40
8707;BME280;75512;49.302;9.306;2024-01-10T04:34:06;100702.91;;;-3.99;37.92
8707;BME280;75512;49.302;9.306;2024-01-10T04:36:34;100704.50;;;-3.95;37.79
8707;BME280;75512;49.302;9.306;2024-01-10T04:39:02;100704.38;;;-3.89;38.01
8707;BME280;75512;49.302;9.306;2024-01-10T04:41:30;100683.75;;;-3.80;37.58
8707;BME280;75512;49.302;9.306;2024-01-10T04:43:58;100700.88;;;-3.85;37.92
8707;BME280;75512;49.302;9.306;2024-01-10T04:46:26;100707.81;;;-3.90;37.55
8707;BME280;75512;49.302;9.306;2024-01-10T04:48:55;100695.09;;;-3.93;38.00
8707;BME280;75512;49.302;9.306;2024-01-10T04:51:23;100695.97;;;-3.95;37.77
8707;BME280;75512;49.302;9.306;2024-01-10T04:53:51;100699.00;;;-3.75;37.44
8707;BME280;75512;49.302;9.306;2024-01-10T04:56:19;100694.63;;;-3.70;38.00
8707;BME280;75512;49.302;9.306;2024-01-10T04:58:47;100685.94;;;-3.63;37.65
8707;BME280;75512;49.302;9.306;2024-01-10T05:01:14;100688.63;;;-3.69;37.76
8707;BME280;75512;49.302;9.306;2024-01-10T05:03:42;100670.09;;;-3.79;37.33
8707;BME280;75512;49.302;9.306;2024-01-10T05:06:12;100687.44;;;-3.53;37.97
8707;BME280;75512;49.302;9.306;2024-01-10T05:08:42;100692.72;;;-3.60;38.02
8707;BME280;75512;49.302;9.306;2024-01-10T05:11:10;100692.81;;;-3.65;37.86
8707;BME280;75512;49.302;9.306;2024-01-10T05:13:38;100692.09;;;-3.70;37.55
8707;BME280;75512;49.302;9.306;2024-01-10T05:16:06;100705.47;;;-3.59;37.54
8707;BME280;75512;49.302;9.306;2024-01-10T05:18:34;100705.13;;;-3.44;37.91
8707;BME280;75512;49.302;9.306;2024-01-10T05:21:02;100692.44;;;-3.47;37.44
8707;BME280;75512;49.302;9.306;2024-01-10T05:23:32;100693.22;;;-3.45;37.83
8707;BME280;75512;49.302;9.306;2024-01-10T05:26:00;100687.88;;;-3.73;37.99
8707;BME280;75512;49.302;9.306;2024-01-10T05:28:28;100691.31;;;-3.74;38.10
8707;BME280;75512;49.302;9.306;2024-01-10T05:30:56;100697.53;;;-3.87;38.11
8707;BME280;75512;49.302;9.306;2024-01-10T05:33:24;100690.63;;;-3.83;38.05
8707;BME280;75512;49.302;9.306;2024-01-10T05:35:53;100679.28;;;-4.12;38.18
8707;BME280;75512;49.302;9.306;2024-01-10T05:38:20;100698.34;;;-3.85;38.38
8707;BME280;75512;49.302;9.306;2024-01-10T05:40:50;100712.03;;;-3.89;38.05
8707;BME280;75512;49.302;9.306;2024-01-10T05:43:18;100690.16;;;-4.01;38.05
8707;BME280;75512;49.302;9.306;2024-01-10T05:45:46;100692.56;;;-3.94;38.50
8707;BME280;75512;49.302;9.306;2024-01-10T05:48:14;100709.72;;;-4.00;38.33
8707;BME280;75512;49.302;9.306;2024-01-10T05:50:44;100700.03;;;-3.84;38.02
8707;BME280;75512;49.302;9.306;2024-01-10T05:53:12;100701.66;;;-3.80;37.82
8707;BME280;75512;49.302;9.306;2024-01-10T05:55:43;100711.81;;;-3.77;38.06
8707;BME280;75512;49.302;9.306;2024-01-10T05:58:13;100705.00;;;-3.78;37.41
8707;BME280;75512;49.302;9.306;2024-01-10T06:00:41;100692.75;;;-3.62;37.66
8707;BME280;75512;49.302;9.306;2024-01-10T06:03:09;100688.34;;;-3.55;37.96
8707;BME280;75512;49.302;9.306;2024-01-10T06:05:37;100684.13;;;-3.58;37.58
8707;BME280;75512;49.302;9.306;2024-01-10T06:08:06;100690.91;;;-3.55;37.10
8707;BME280;75512;49.302;9.306;2024-01-10T06:10:34;100700.22;;;-3.53;37.98
8707;BME280;75512;49.302;9.306;2024-01-10T06:13:04;100695.16;;;-3.56;37.29
8707;BME280;75512;49.302;9.306;2024-01-10T06:15:33;100689.25;;;-3.58;37.32
8707;BME280;75512;49.302;9.306;2024-01-10T06:18:01;100697.44;;;-3.82;37.46
8707;BME280;75512;49.302;9.306;2024-01-10T06:20:30;100700.31;;;-3.97;38.48
8707;BME280;75512;49.302;9.306;2024-01-10T06:22:58;100700.47;;;-4.51;39.15
8707;BME280;75512;49.302;9.306;2024-01-10T06:25:26;100687.34;;;-4.33;40.10
8707;BME280;75512;49.302;9.306;2024-01-10T06:27:54;100696.50;;;-4.21;39.16
8707;BME280;75512;49.302;9.306;2024-01-10T06:30:22;100713.84;;;-4.39;38.28
8707;BME280;75512;49.302;9.306;2024-01-10T06:32:51;100705.22;;;-4.32;38.78
8707;BME280;75512;49.302;9.306;2024-01-10T06:35:19;100713.22;;;-4.50;38.74
8707;BME280;75512;49.302;9.306;2024-01-10T06:37:47;100695.97;;;-4.39;39.04
8707;BME280;75512;49.302;9.306;2024-01-10T06:40:15;100691.13;;;-4.08;39.05
8707;BME280;75512;49.302;9.306;2024-01-10T06:42:43;100693.44;;;-3.95;38.09
8707;BME280;75512;49.302;9.306;2024-01-10T06:45:11;100701.47;;;-3.71;38.19
8707;BME280;75512;49.302;9.306;2024-01-10T06:47:39;100692.00;;;-3.67;37.94
8707;BME280;75512;49.302;9.306;2024-01-10T06:50:09;100702.25;;;-3.69;37.42
8707;BME280;75512;49.302;9.306;2024-01-10T06:52:37;100715.59;;;-3.54;37.50
8707;BME280;75512;49.302;9.306;2024-01-10T06:55:07;100711.94;;;-3.83;37.59
8707;BME280;75512;49.302;9.306;2024-01-10T06:57:35;100726.19;;;-3.71;38.39
8707;BME280;75512;49.302;9.306;2024-01-10T07:00:05;100713.22;;;-3.64;37.98
8707;BME280;75512;49.302;9.306;2024-01-10T07:02:37;100710.44;;;-3.53;38.25
8707;BME280;75512;49.302;9.306;2024-01-10T07:05:07;100723.03;;;-3.44;37.77
8707;BME280;75512;49.302;9.306;2024-01-10T07:07:37;100728.78;;;-3.73;37.90
8707;BME280;75512;49.302;9.306;2024-01-10T07:10:05;100725.53;;;-3.81;38.17
8707;BME280;75512;49.302;9.306;2024-01-10T07:12:34;100721.84;;;-4.11;38.79
8707;BME280;75512;49.302;9.306;2024-01-10T07:15:02;100737.06;;;-4.51;39.67
8707;BME280;75512;49.302;9.306;2024-01-10T07:17:30;100726.41;;;-4.26;39.30
8707;BME280;75512;49.302;9.306;2024-01-10T07:19:58;100739.69;;;-4.09;39.02
8707;BME280;75512;49.302;9.306;2024-01-10T07:22:26;100731.59;;;-4.31;39.66
8707;BME280;75512;49.302;9.306;2024-01-10T07:24:55;100730.72;;;-4.30;39.47
8707;BME280;75512;49.302;9.306;2024-01-10T07:27:24;100729.78;;;-4.24;39.30
8707;BME280;75512;49.302;9.306;2024-01-10T07:29:52;100743.88;;;-4.51;39.51
8707;BME280;75512;49.302;9.306;2024-01-10T07:32:20;100752.88;;;-4.30;39.29
8707;BME280;75512;49.302;9.306;2024-01-10T07:34:48;100765.50;;;-4.23;38.74
8707;BME280;75512;49.302;9.306;2024-01-10T07:37:15;100756.28;;;-4.32;40.14
8707;BME280;75512;49.302;9.306;2024-01-10T07:39:47;100746.50;;;-4.56;39.75
8707;BME280;75512;49.302;9.306;2024-01-10T07:42:18;100757.53;;;-4.54;40.32
8707;BME280;75512;49.302;9.306;2024-01-10T07:44:46;100754.28;;;-4.65;39.77
8707;BME280;75512;49.302;9.306;2024-01-10T07:47:16;100735.75;;;-4.25;38.80
8707;BME280;75512;49.302;9.306;2024-01-10T07:49:44;100741.44;;;-4.11;38.96
8707;BME280;75512;49.302;9.306;2024-01-10T07:52:11;100764.28;;;-4.02;38.64
8707;BME280;75512;49.302;9.306;2024-01-10T07:54:39;100755.13;;;-4.15;39.06
8707;BME280;75512;49.302;9.306;2024-01-10T07:57:07;100768.25;;;-4.35;39.31
8707;BME280;75512;49.302;9.306;2024-01-10T07:59:37;100768.13;;;-4.26;39.72
8707;BME280;75512;49.302;9.306;2024-01-10T08:02:05;100776.41;;;-4.15;39.87
8707;BME280;75512;49.302;9.306;2024-01-10T08:04:34;100779.56;;;-4.48;39.95
8707;BME280;75512;49.302;9.306;2024-01-10T08:07:02;100773.91;;;-4.18;40.31
8707;BME280;75512;49.302;9.306;2024-01-10T08:09:28;100762.81;;;-4.17;39.69
8707;BME280;75512;49.302;9.306;2024-01-10T08:11:56;100783.69;;;-3.95;39.91
8707;BME280;75512;49.302;9.306;2024-01-10T08:14:24;100779.19;;;-3.81;39.12
8707;BME280;75512;49.302;9.306;2024-01-10T08:16:54;100771.34;;;-3.72;38.61
8707;BME280;75512;49.302;9.306;2024-01-10T08:19:25;100768.34;;;-3.49;38.87
8707;BME280;75512;49.302;9.306;2024-01-10T08:21:53;100780.88;;;-3.38;38.64
8707;BME280;75512;49.302;9.306;2024-01-10T08:24:21;100787.75;;;-3.40;38.56
8707;BME280;75512;49.302;9.306;2024-01-10T08:26:49;100776.59;;;-3.78;39.11
8707;BME280;75512;49.302;9.306;2024-01-10T08:29:18;100758.22;;;-3.96;38.80
8707;BME280;75512;49.302;9.306;2024-01-10T08:31:47;100773.97;;;-3.75;39.24
8707;BME280;75512;49.302;9.306;2024-01-10T08:34:17;100774.56;;;-3.62;39.23
8707;BME280;75512;49.302;9.306;2024-01-10T08:36:45;100761.97;;;-3.71;39.26
8707;BME280;75512;49.302;9.306;2024-01-10T08:39:17;100763.94;;;-4.30;39.94
8707;BME280;75512;49.302;9.306;2024-01-10T08:41:45;100777.72;;;-4.40;40.73
8707;BME280;75512;49.302;9.306;2024-01-10T08:44:13;100775.94;;;-4.37;40.64
8707;BME280;75512;49.302;9.306;2024-01-10T08:46:41;100778.13;;;-4.15;40.34
8707;BME280;75512;49.302;9.306;2024-01-10T08:49:09;100772.38;;;-3.80;39.63
8707;BME280;75512;49.302;9.306;2024-01-10T08:51:38;100765.81;;;-3.50;38.71
8707;BME280;75512;49.302;9.306;2024-01-10T08:54:08;100780.00;;;-3.37;38.21
8707;BME280;75512;49.302;9.306;2024-01-10T08:56:39;100791.75;;;-3.27;38.46
8707;BME280;75512;49.302;9.306;2024-01-10T08:59:07;100776.25;;;-3.61;38.97
8707;BME280;75512;49.302;9.306;2024-01-10T09:01:34;100788.94;;;-3.56;39.18
8707;BME280;75512;49.302;9.306;2024-01-10T09:04:03;100786.56;;;-3.24;38.89
8707;BME280;75512;49.302;9.306;2024-01-10T09:06:31;100791.47;;;-3.98;40.30
8707;BME280;75512;49.302;9.306;2024-01-10T09:09:00;100787.25;;;-3.57;39.43
8707;BME280;75512;49.302;9.306;2024-01-10T09:11:29;100795.88;;;-3.63;39.31
8707;BME280;75512;49.302;9.306;2024-01-10T09:14:00;100798.78;;;-3.80;39.74
8707;BME280;75512;49.302;9.306;2024-01-10T09:16:27;100802.59;;;-3.57;39.92
8707;BME280;75512;49.302;9.306;2024-01-10T09:18:55;100803.41;;;-3.15;38.48
8707;BME280;75512;49.302;9.306;2024-01-10T09:21:25;100801.22;;;-3.32;38.71
8707;BME280;75512;49.302;9.306;2024-01-10T09:23:53;100795.44;;;-3.02;38.44
8707;BME280;75512;49.302;9.306;2024-01-10T09:26:24;100789.16;;;-2.88;37.87
8707;BME280;75512;49.302;9.306;2024-01-10T09:28:51;100789.81;;;-3.17;38.22
8707;BME280;75512;49.302;9.306;2024-01-10T09:31:19;100792.25;;;-2.74;38.33
8707;BME280;75512;49.302;9.306;2024-01-10T09:33:56;100796.72;;;-2.82;38.04
8707;BME280;75512;49.302;9.306;2024-01-10T09:36:24;100804.72;;;-2.61;38.38
8707;BME280;75512;49.302;9.306;2024-01-10T09:38:52;100789.81;;;-2.79;38.09
8707;BME280;75512;49.302;9.306;2024-01-10T09:41:20;100797.31;;;-2.37;37.75
8707;BME280;75512;49.302;9.306;2024-01-10T09:43:49;100804.09;;;-2.69;37.75
8707;BME280;75512;49.302;9.306;2024-01-10T09:46:17;100784.44;;;-2.34;37.46
8707;BME280;75512;49.302;9.306;2024-01-10T09:48:46;100800.41;;;-2.58;37.86
8707;BME280;75512;49.302;9.306;2024-01-10T09:51:18;100803.53;;;-2.46;37.92
8707;BME280;75512;49.302;9.306;2024-01-10T09:53:48;100805.94;;;-2.06;37.11
8707;BME280;75512;49.302;9.306;2024-01-10T09:56:18;100796.19;;;-1.62;35.89
8707;BME280;75512;49.302;9.306;2024-01-10T09:58:49;100789.44;;;-1.65;36.32
8707;BME280;75512;49.302;9.306;2024-01-10T10:01:20;100809.59;;;-1.21;35.76
8707;BME280;75512;49.302;9.306;2024-01-10T10:03:50;100799.84;;;-1.10;35.93
8707;BME280;75512;49.302;9.306;2024-01-10T10:06:18;100795.25;;;-1.29;35.32
8707;BME280;75512;49.302;9.306;2024-01-10T10:08:47;100801.09;;;-1.23;34.99
8707;BME280;75512;49.302;9.306;2024-01-10T10:11:15;100789.41;;;-1.06;35.63
8707;BME280;75512;49.302;9.306;2024-01-10T10:13:43;100794.69;;;-1.38;35.75
8707;BME280;75512;49.302;9.306;2024-01-10T10:16:13;100792.59;;;-1.26;36.50
8707;BME280;75512;49.302;9.306;2024-01-10T10:18:41;100798.91;;;-0.80;35.96
8707;BME280;75512;49.302;9.306;2024-01-10T10:21:14;100793.19;;;-0.88;35.58
8707;BME280;75512;49.302;9.306;2024-01-10T10:23:57;100793.81;;;-0.04;34.61
8707;BME280;75512;49.302;9.306;2024-01-10T10:26:27;100787.66;;;0.25;33.39
8707;BME280;75512;49.302;9.306;2024-01-10T10:28:56;100792.72;;;0.28;33.25
8707;BME280;75512;49.302;9.306;2024-01-10T10:31:25;100793.66;;;0.72;33.17
8707;BME280;75512;49.302;9.306;2024-01-10T10:33:53;100791.31;;;0.66;33.30
8707;BME280;75512;49.302;9.306;2024-01-10T10:36:22;100777.19;;;1.22;32.02
8707;BME280;75512;49.302;9.306;2024-01-10T10:38:49;100804.69;;;2.44;31.02
8707;BME280;75512;49.302;9.306;2024-01-10T10:41:18;100793.03;;;2.92;29.33
8707;BME280;75512;49.302;9.306;2024-01-10T10:43:46;100771.47;;;3.29;29.30
8707;BME280;75512;49.302;9.306;2024-01-10T10:46:17;100785.41;;;3.61;27.77
8707;BME280;75512;49.302;9.306;2024-01-10T10:48:48;100781.03;;;3.80;28.19
8707;BME280;75512;49.302;9.306;2024-01-10T10:51:19;100777.59;;;3.63;28.21
8707;BME280;75512;49.302;9.306;2024-01-10T10:53:53;100777.81;;;4.59;27.13
8707;BME280;75512;49.302;9.306;2024-01-10T10:56:23;100763.25;;;5.19;26.59
8707;BME280;75512;49.302;9.306;2024-01-10T10:58:52;100780.69;;;5.77;25.71
8707;BME280;75512;49.302;9.306;2024-01-10T11:01:21;100771.69;;;5.82;25.55
8707;BME280;75512;49.302;9.306;2024-01-10T11:03:52;100773.31;;;6.13;24.68
8707;BME280;75512;49.302;9.306;2024-01-10T11:06:21;100767.56;;;6.08;24.40
8707;BME280;75512;49.302;9.306;2024-01-10T11:08:53;100783.06;;;6.10;23.60
8707;BME280;75512;49.302;9.306;2024-01-10T11:11:43;100775.22;;;5.96;25.06
8707;BME280;75512;49.302;9.306;2024-01-10T11:14:24;100787.59;;;6.35;24.46
8707;BME280;75512;49.302;9.306;2024-01-10T11:17:26;100769.69;;;5.87;24.25
8707;BME280;75512;49.302;9.306;2024-01-10T11:20:10;100771.19;;;5.62;24.38
8707;BME280;75512;49.302;9.306;2024-01-10T11:22:58;100775.31;;;5.94;25.03
8707;BME280;75512;49.302;9.306;2024-01-10T11:25:31;100770.22;;;5.93;24.65
8707;BME280;75512;49.302;9.306;2024-01-10T11:28:02;100776.66;;;5.71;24.15
8707;BME280;75512;49.302;9.306;2024-01-10T11:30:33;100776.53;;;5.88;24.54
8707;BME280;75512;49.302;9.306;2024-01-10T11:33:17;100769.97;;;5.67;24.40
8707;BME280;75512;49.302;9.306;2024-01-10T11:36:08;100776.28;;;6.36;24.46
8707;BME280;75512;49.302;9.306;2024-01-10T11:38:42;100775.53;;;6.62;23.80
8707;BME280;75512;49.302;9.306;2024-01-10T11:41:11;100778.31;;;6.45;23.17
8707;BME280;75512;49.302;9.306;2024-01-10T11:43:39;100764.03;;;6.38;23.30
8707;BME280;75512;49.302;9.306;2024-01-10T11:46:08;100762.56;;;5.61;24.74
8707;BME280;75512;49.302;9.306;2024-01-10T11:48:36;100755.38;;;5.95;24.50
8707;BME280;75512;49.302;9.306;2024-01-10T11:51:18;100753.34;;;5.85;23.92
8707;BME280;75512;49.302;9.306;2024-01-10T11:53:48;100755.69;;;6.33;24.11
8707;BME280;75512;49.302;9.306;2024-01-10T11:56:20;100757.41;;;6.89;23.61
8707;BME280;75512;49.302;9.306;2024-01-10T11:59:03;100758.22;;;6.89;23.20
8707;BME280;75512;49.302;9.306;2024-01-10T12:01:32;100758.63;;;7.10;23.43
8707;BME280;75512;49.302;9.306;2024-01-10T12:04:02;100756.06;;;6.41;23.77
8707;BME280;75512;49.302;9.306;2024-01-10T12:06:47;100756.53;;;6.33;23.61
8707;BME280;75512;49.302;9.306;2024-01-10T12:09:17;100760.19;;;7.13;23.26
8707;BME280;75512;49.302;9.306;2024-01-10T12:11:49;100755.84;;;7.26;23.50
8707;BME280;75512;49.302;9.306;2024-01-10T12:14:18;100747.28;;;7.11;22.50
8707;BME280;75512;49.302;9.306;2024-01-10T12:16:48;100753.16;;;7.01;23.28
8707;BME280;75512;49.302;9.306;2024-01-10T12:19:17;100759.91;;;6.91;23.78
8707;BME280;75512;49.302;9.306;2024-01-10T12:21:50;100752.94;;;6.91;23.32
8707;BME280;75512;49.302;9.306;2024-01-10T12:24:20;100746.38;;;6.98;23.36
8707;BME280;75512;49.302;9.306;2024-01-10T12:26:50;100747.56;;;7.34;23.14
8707;BME280;75512;49.302;9.306;2024-01-10T12:29:22;100755.84;;;7.66;22.46
8707;BME280;75512;49.302;9.306;2024-01-10T12:31:54;100756.41;;;7.04;22.74
8707;BME280;75512;49.302;9.306;2024-01-10T12:34:26;100751.59;;;7.90;22.69
8707;BME280;75512;49.302;9.306;2024-01-10T12:36:56;100754.91;;;8.05;22.13
8707;BME280;75512;49.302;9.306;2024-01-10T12:39:25;100745.50;;;7.12;22.84
8707;BME280;75512;49.302;9.306;2024-01-10T12:42:01;100753.34;;;7.77;22.49
8707;BME280;75512;49.302;9.306;2024-01-10T12:44:31;100741.56;;;8.09;22.87
8707;BME280;75512;49.302;9.306;2024-01-10T12:47:01;100743.34;;;8.34;21.86
8707;BME280;75512;49.302;9.306;2024-01-10T12:49:34;100735.56;;;8.21;21.95
8707;BME280;75512;49.302;9.306;2024-01-10T12:52:12;100741.06;;;8.30;21.88
8707;BME280;75512;49.302;9.306;2024-01-10T12:54:51;100729.53;;;8.21;22.23
8707;BME280;75512;49.302;9.306;2024-01-10T12:57:31;100733.06;;;8.69;21.72
8707;BME280;75512;49.302;9.306;2024-01-10T13:00:01;100740.53;;;8.37;21.21
8707;BME280;75512;49.302;9.306;2024-01-10T13:02:38;100749.28;;;8.11;22.44
8707;BME280;75512;49.302;9.306;2024-01-10T13:05:09;100749.38;;;8.47;22.27
8707;BME280;75512;49.302;9.306;2024-01-10T13:07:45;100744.66;;;8.52;21.89
8707;BME280;75512;49.302;9.306;2024-01-10T13:10:31;100737.13;;;8.73;21.91
8707;BME280;75512;49.302;9.306;2024-01-10T13:13:30;100745.22;;;8.45;21.26
8707;BME280;75512;49.302;9.306;2024-01-10T13:16:14;100736.94;;;8.87;21.94
8707;BME280;75512;49.302;9.306;2024-01-10T13:18:55;100747.56;;;9.21;21.09